sensor_id;sensor_type;location;lat;lon;timestamp;P1;durP1;ratioP1;P2;durP2;ratioP2
7051;SDS011;3567;52.444;13.556;2022-12-05T00:01:36;413.50;;;79.75;;
7051;SDS011;3567;52.444;13.556;2022-12-05T00:04:09;420.23;;;80.32;;
7051;SDS011;3567;52.444;13.556;2022-12-05T00:06:36;393.85;;;80.47;;
7051;SDS011;3567;52.444;13.556;2022-12-05T00:09:03;399.15;;;78.45;;
7051;SDS011;3567;52.444;13.556;2022-12-05T00:11:32;411.92;;;76.25;;
7051;SDS011;3567;52.444;13.556;2022-12-05T00:14:00;388.75;;;79.35;;
7051;SDS011;3567;52.444;13.556;2022-12-05T00:16:27;400.85;;;76.85;;
7051;SDS011;3567;52.444;13.556;2022-12-05T00:18:54;412.42;;;78.70;;
7051;SDS011;3567;52.444;13.556;2022-12-05T00:21:21;420.42;;;81.75;;
7051;SDS011;3567;52.444;13.556;2022-12-05T00:23:49;431.58;;;77.20;;
7051;SDS011;3567;52.444;13.556;2022-12-05T00:26:15;398.15;;;76.63;;
7051;SDS011;3567;52.444;13.556;2022-12-05T00:28:41;390.20;;;76.75;;
7051;SDS011;3567;52.444;13.556;2022-12-05T00:31:08;414.40;;;81.55;;
7051;SDS011;3567;52.444;13.556;2022-12-05T00:33:38;424.55;;;76.78;;
7051;SDS011;3567;52.444;13.556;2022-12-05T00:36:05;414.25;;;81.38;;
7051;SDS011;3567;52.444;13.556;2022-12-05T00:38:32;407.08;;;79.80;;
7051;SDS011;3567;52.444;13.556;2022-12-05T00:41:02;430.75;;;79.72;;
7051;SDS011;3567;52.444;13.556;2022-12-05T00:43:31;425.73;;;81.80;;
7051;SDS011;3567;52.444;13.556;2022-12-05T00:46:01;394.23;;;78.72;;
7051;SDS011;3567;52.444;13.556;2022-12-05T00:48:27;393.55;;;75.13;;
7051;SDS011;3567;52.444;13.556;2022-12-05T00:51:03;418.70;;;80.45;;
7051;SDS011;3567;52.444;13.556;2022-12-05T00:53:31;442.52;;;81.03;;
7051;SDS011;3567;52.444;13.556;2022-12-05T00:56:01;405.92;;;80.20;;
7051;SDS011;3567;52.444;13.556;2022-12-05T00:58:27;413.52;;;80.30;;
7051;SDS011;3567;52.444;13.556;2022-12-05T01:00:53;370.35;;;73.30;;
7051;SDS011;3567;52.444;13.556;2022-12-05T01:03:18;369.48;;;77.05;;
7051;SDS011;3567;52.444;13.556;2022-12-05T01:05:44;400.40;;;84.35;;
7051;SDS011;3567;52.444;13.556;2022-12-05T01:08:09;403.25;;;79.78;;
7051;SDS011;3567;52.444;13.556;2022-12-05T01:10:34;360.85;;;72.32;;
7051;SDS011;3567;52.444;13.556;2022-12-05T01:12:59;409.77;;;80.47;;
7051;SDS011;3567;52.444;13.556;2022-12-05T01:15:25;424.42;;;79.40;;
7051;SDS011;3567;52.444;13.556;2022-12-05T01:17:50;412.33;;;77.70;;
7051;SDS011;3567;52.444;13.556;2022-12-05T01:20:16;433.08;;;81.80;;
7051;SDS011;3567;52.444;13.556;2022-12-05T01:22:41;372.77;;;71.65;;
7051;SDS011;3567;52.444;13.556;2022-12-05T01:25:06;404.85;;;74.68;;
7051;SDS011;3567;52.444;13.556;2022-12-05T01:27:32;413.30;;;76.68;;
7051;SDS011;3567;52.444;13.556;2022-12-05T01:32:33;403.60;;;73.53;;
7051;SDS011;3567;52.444;13.556;2022-12-05T01:34:58;422.67;;;79.93;;
7051;SDS011;3567;52.444;13.556;2022-12-05T01:37:23;398.25;;;76.15;;
7051;SDS011;3567;52.444;13.556;2022-12-05T01:39:49;411.38;;;77.63;;
7051;SDS011;3567;52.444;13.556;2022-12-05T01:42:14;364.20;;;73.82;;
7051;SDS011;3567;52.444;13.556;2022-12-05T01:47:05;404.08;;;78.55;;
7051;SDS011;3567;52.444;13.556;2022-12-05T01:49:32;382.23;;;77.10;;
7051;SDS011;3567;52.444;13.556;2022-12-05T01:52:02;399.33;;;76.95;;
7051;SDS011;3567;52.444;13.556;2022-12-05T01:54:31;384.67;;;73.35;;
7051;SDS011;3567;52.444;13.556;2022-12-05T01:57:02;404.80;;;76.40;;
7051;SDS011;3567;52.444;13.556;2022-12-05T01:59:32;371.65;;;72.82;;
7051;SDS011;3567;52.444;13.556;2022-12-05T02:02:00;379.17;;;73.55;;
7051;SDS011;3567;52.444;13.556;2022-12-05T02:04:25;380.85;;;71.80;;
7051;SDS011;3567;52.444;13.556;2022-12-05T02:06:52;375.63;;;72.93;;
7051;SDS011;3567;52.444;13.556;2022-12-05T02:09:19;367.10;;;72.78;;
7051;SDS011;3567;52.444;13.556;2022-12-05T02:11:49;386.73;;;71.68;;
7051;SDS011;3567;52.444;13.556;2022-12-05T02:17:07;392.30;;;74.18;;
7051;SDS011;3567;52.444;13.556;2022-12-05T02:31:08;358.63;;;72.10;;
7051;SDS011;3567;52.444;13.556;2022-12-05T02:33:52;353.90;;;71.10;;
7051;SDS011;3567;52.444;13.556;2022-12-05T02:41:49;360.55;;;68.78;;
7051;SDS011;3567;52.444;13.556;2022-12-05T02:44:29;334.75;;;68.50;;
7051;SDS011;3567;52.444;13.556;2022-12-05T02:46:57;353.90;;;72.55;;
7051;SDS011;3567;52.444;13.556;2022-12-05T02:49:25;323.92;;;68.43;;
7051;SDS011;3567;52.444;13.556;2022-12-05T02:51:56;335.95;;;66.88;;
7051;SDS011;3567;52.444;13.556;2022-12-05T02:54:25;317.77;;;66.75;;
7051;SDS011;3567;52.444;13.556;2022-12-05T02:56:54;315.38;;;67.43;;
7051;SDS011;3567;52.444;13.556;2022-12-05T02:59:21;322.70;;;67.63;;
7051;SDS011;3567;52.444;13.556;2022-12-05T03:01:46;304.17;;;65.68;;
7051;SDS011;3567;52.444;13.556;2022-12-05T03:04:13;327.58;;;65.97;;
7051;SDS011;3567;52.444;13.556;2022-12-05T03:06:41;295.50;;;61.33;;
7051;SDS011;3567;52.444;13.556;2022-12-05T03:09:15;275.58;;;61.28;;
7051;SDS011;3567;52.444;13.556;2022-12-05T03:14:12;303.13;;;63.83;;
7051;SDS011;3567;52.444;13.556;2022-12-05T03:16:48;278.33;;;62.83;;
7051;SDS011;3567;52.444;13.556;2022-12-05T03:19:21;261.25;;;58.53;;
7051;SDS011;3567;52.444;13.556;2022-12-05T03:21:57;253.90;;;61.90;;
7051;SDS011;3567;52.444;13.556;2022-12-05T03:24:25;264.40;;;60.83;;
7051;SDS011;3567;52.444;13.556;2022-12-05T03:27:24;267.00;;;62.97;;
7051;SDS011;3567;52.444;13.556;2022-12-05T03:37:46;254.65;;;58.75;;
7051;SDS011;3567;52.444;13.556;2022-12-05T03:48:37;243.35;;;56.53;;
7051;SDS011;3567;52.444;13.556;2022-12-05T03:51:22;243.93;;;56.55;;
7051;SDS011;3567;52.444;13.556;2022-12-05T03:53:54;284.88;;;62.67;;
7051;SDS011;3567;52.444;13.556;2022-12-05T03:56:26;244.90;;;57.35;;
7051;SDS011;3567;52.444;13.556;2022-12-05T03:59:04;227.23;;;56.08;;
7051;SDS011;3567;52.444;13.556;2022-12-05T04:01:39;244.82;;;59.63;;
7051;SDS011;3567;52.444;13.556;2022-12-05T04:04:08;222.23;;;57.50;;
7051;SDS011;3567;52.444;13.556;2022-12-05T04:06:38;252.55;;;59.42;;
7051;SDS011;3567;52.444;13.556;2022-12-05T04:09:11;250.13;;;60.30;;
7051;SDS011;3567;52.444;13.556;2022-12-05T04:12:02;229.25;;;57.75;;
7051;SDS011;3567;52.444;13.556;2022-12-05T04:14:46;212.85;;;53.15;;
7051;SDS011;3567;52.444;13.556;2022-12-05T04:17:23;240.20;;;56.60;;
7051;SDS011;3567;52.444;13.556;2022-12-05T04:20:17;237.60;;;54.90;;
7051;SDS011;3567;52.444;13.556;2022-12-05T04:23:04;226.48;;;55.03;;
7051;SDS011;3567;52.444;13.556;2022-12-05T04:25:35;200.82;;;52.42;;
7051;SDS011;3567;52.444;13.556;2022-12-05T04:28:08;199.75;;;52.33;;
7051;SDS011;3567;52.444;13.556;2022-12-05T04:30:38;211.10;;;51.38;;
7051;SDS011;3567;52.444;13.556;2022-12-05T04:36:15;191.07;;;51.28;;
7051;SDS011;3567;52.444;13.556;2022-12-05T04:39:05;189.07;;;50.35;;
7051;SDS011;3567;52.444;13.556;2022-12-05T04:44:49;188.68;;;51.33;;
7051;SDS011;3567;52.444;13.556;2022-12-05T04:47:20;183.63;;;50.78;;
7051;SDS011;3567;52.444;13.556;2022-12-05T04:49:51;173.52;;;49.03;;
7051;SDS011;3567;52.444;13.556;2022-12-05T04:52:18;174.07;;;47.85;;
7051;SDS011;3567;52.444;13.556;2022-12-05T04:54:47;164.38;;;45.58;;
7051;SDS011;3567;52.444;13.556;2022-12-05T04:57:19;173.65;;;48.45;;
7051;SDS011;3567;52.444;13.556;2022-12-05T04:59:45;157.52;;;47.83;;
7051;SDS011;3567;52.444;13.556;2022-12-05T05:02:11;160.48;;;47.60;;
7051;SDS011;3567;52.444;13.556;2022-12-05T05:04:43;153.45;;;48.63;;
7051;SDS011;3567;52.444;13.556;2022-12-05T05:07:16;158.73;;;47.35;;
7051;SDS011;3567;52.444;13.556;2022-12-05T05:09:42;145.38;;;48.28;;
7051;SDS011;3567;52.444;13.556;2022-12-05T05:12:08;150.15;;;45.97;;
7051;SDS011;3567;52.444;13.556;2022-12-05T05:14:34;152.07;;;43.55;;
7051;SDS011;3567;52.444;13.556;2022-12-05T05:17:00;153.20;;;46.05;;
7051;SDS011;3567;52.444;13.556;2022-12-05T05:19:25;147.60;;;44.30;;
7051;SDS011;3567;52.444;13.556;2022-12-05T05:21:51;135.27;;;43.88;;
7051;SDS011;3567;52.444;13.556;2022-12-05T05:24:17;131.77;;;41.38;;
7051;SDS011;3567;52.444;13.556;2022-12-05T05:26:43;129.70;;;42.85;;
7051;SDS011;3567;52.444;13.556;2022-12-05T05:29:10;129.98;;;42.65;;
7051;SDS011;3567;52.444;13.556;2022-12-05T05:31:37;119.05;;;42.70;;
7051;SDS011;3567;52.444;13.556;2022-12-05T05:34:03;123.72;;;40.08;;
7051;SDS011;3567;52.444;13.556;2022-12-05T05:36:29;121.35;;;39.65;;
7051;SDS011;3567;52.444;13.556;2022-12-05T05:38:56;117.10;;;39.65;;
7051;SDS011;3567;52.444;13.556;2022-12-05T05:41:24;112.40;;;38.58;;
7051;SDS011;3567;52.444;13.556;2022-12-05T05:43:51;113.55;;;37.80;;
7051;SDS011;3567;52.444;13.556;2022-12-05T05:46:21;91.82;;;35.78;;
7051;SDS011;3567;52.444;13.556;2022-12-05T05:48:49;97.45;;;36.30;;
7051;SDS011;3567;52.444;13.556;2022-12-05T05:51:15;112.30;;;38.53;;
7051;SDS011;3567;52.444;13.556;2022-12-05T05:53:42;99.35;;;34.95;;
7051;SDS011;3567;52.444;13.556;2022-12-05T05:56:09;83.40;;;34.20;;
7051;SDS011;3567;52.444;13.556;2022-12-05T05:58:36;94.28;;;32.60;;
7051;SDS011;3567;52.444;13.556;2022-12-05T06:01:05;103.50;;;35.60;;
7051;SDS011;3567;52.444;13.556;2022-12-05T06:03:36;82.55;;;34.08;;
7051;SDS011;3567;52.444;13.556;2022-12-05T06:06:04;79.18;;;32.35;;
7051;SDS011;3567;52.444;13.556;2022-12-05T06:08:32;83.38;;;33.67;;
7051;SDS011;3567;52.444;13.556;2022-12-05T06:11:10;73.18;;;31.38;;
7051;SDS011;3567;52.444;13.556;2022-12-05T06:13:39;74.13;;;31.88;;
7051;SDS011;3567;52.444;13.556;2022-12-05T06:16:06;65.32;;;30.33;;
7051;SDS011;3567;52.444;13.556;2022-12-05T06:18:32;74.25;;;30.15;;
7051;SDS011;3567;52.444;13.556;2022-12-05T06:20:58;80.65;;;32.10;;
7051;SDS011;3567;52.444;13.556;2022-12-05T06:23:24;74.63;;;31.27;;
7051;SDS011;3567;52.444;13.556;2022-12-05T06:25:51;77.32;;;31.88;;
7051;SDS011;3567;52.444;13.556;2022-12-05T06:28:17;84.10;;;32.10;;
7051;SDS011;3567;52.444;13.556;2022-12-05T06:30:44;67.93;;;30.83;;
7051;SDS011;3567;52.444;13.556;2022-12-05T06:33:10;81.93;;;32.72;;
7051;SDS011;3567;52.444;13.556;2022-12-05T06:35:36;78.68;;;34.00;;
7051;SDS011;3567;52.444;13.556;2022-12-05T06:38:02;62.72;;;28.92;;
7051;SDS011;3567;52.444;13.556;2022-12-05T06:40:28;77.25;;;33.45;;
7051;SDS011;3567;52.444;13.556;2022-12-05T06:42:53;71.85;;;32.10;;
7051;SDS011;3567;52.444;13.556;2022-12-05T06:45:19;68.97;;;31.25;;
7051;SDS011;3567;52.444;13.556;2022-12-05T06:47:44;72.65;;;29.20;;
7051;SDS011;3567;52.444;13.556;2022-12-05T06:50:10;85.65;;;31.83;;
7051;SDS011;3567;52.444;13.556;2022-12-05T06:52:35;71.82;;;30.27;;
7051;SDS011;3567;52.444;13.556;2022-12-05T06:55:00;68.95;;;30.10;;
7051;SDS011;3567;52.444;13.556;2022-12-05T06:57:29;79.78;;;30.02;;
7051;SDS011;3567;52.444;13.556;2022-12-05T06:59:55;70.80;;;30.08;;
7051;SDS011;3567;52.444;13.556;2022-12-05T07:02:40;74.38;;;30.33;;
7051;SDS011;3567;52.444;13.556;2022-12-05T07:05:06;75.30;;;30.20;;
7051;SDS011;3567;52.444;13.556;2022-12-05T07:07:32;84.47;;;30.85;;
7051;SDS011;3567;52.444;13.556;2022-12-05T07:09:58;76.88;;;31.05;;
7051;SDS011;3567;52.444;13.556;2022-12-05T07:12:23;76.70;;;31.13;;
7051;SDS011;3567;52.444;13.556;2022-12-05T07:14:48;83.13;;;29.63;;
7051;SDS011;3567;52.444;13.556;2022-12-05T07:17:14;72.00;;;31.23;;
7051;SDS011;3567;52.444;13.556;2022-12-05T07:19:40;76.20;;;30.17;;
7051;SDS011;3567;52.444;13.556;2022-12-05T07:22:05;80.32;;;32.72;;
7051;SDS011;3567;52.444;13.556;2022-12-05T07:24:31;73.43;;;30.92;;
7051;SDS011;3567;52.444;13.556;2022-12-05T07:26:56;76.15;;;30.77;;
7051;SDS011;3567;52.444;13.556;2022-12-05T07:29:21;88.82;;;31.58;;
7051;SDS011;3567;52.444;13.556;2022-12-05T07:31:47;78.65;;;32.95;;
7051;SDS011;3567;52.444;13.556;2022-12-05T07:34:12;76.82;;;31.13;;
7051;SDS011;3567;52.444;13.556;2022-12-05T07:36:37;67.22;;;31.23;;
7051;SDS011;3567;52.444;13.556;2022-12-05T07:39:03;75.50;;;30.05;;
7051;SDS011;3567;52.444;13.556;2022-12-05T07:41:29;82.60;;;30.77;;
7051;SDS011;3567;52.444;13.556;2022-12-05T07:43:57;90.13;;;33.47;;
7051;SDS011;3567;52.444;13.556;2022-12-05T07:46:23;79.65;;;32.17;;
7051;SDS011;3567;52.444;13.556;2022-12-05T07:48:50;77.88;;;31.92;;
7051;SDS011;3567;52.444;13.556;2022-12-05T07:51:16;77.53;;;30.55;;
7051;SDS011;3567;52.444;13.556;2022-12-05T07:53:42;80.80;;;31.65;;
7051;SDS011;3567;52.444;13.556;2022-12-05T07:56:09;82.32;;;30.50;;
7051;SDS011;3567;52.444;13.556;2022-12-05T07:58:38;83.28;;;31.10;;
7051;SDS011;3567;52.444;13.556;2022-12-05T08:03:42;77.00;;;29.63;;
7051;SDS011;3567;52.444;13.556;2022-12-05T08:06:09;75.05;;;30.45;;
7051;SDS011;3567;52.444;13.556;2022-12-05T08:08:37;84.05;;;29.85;;
7051;SDS011;3567;52.444;13.556;2022-12-05T08:11:13;80.60;;;31.10;;
7051;SDS011;3567;52.444;13.556;2022-12-05T08:13:40;72.15;;;31.33;;
7051;SDS011;3567;52.444;13.556;2022-12-05T08:16:07;78.85;;;30.90;;
7051;SDS011;3567;52.444;13.556;2022-12-05T08:18:35;89.93;;;32.03;;
7051;SDS011;3567;52.444;13.556;2022-12-05T08:21:08;75.72;;;31.15;;
7051;SDS011;3567;52.444;13.556;2022-12-05T08:23:36;83.97;;;30.25;;
7051;SDS011;3567;52.444;13.556;2022-12-05T08:26:03;98.82;;;30.67;;
7051;SDS011;3567;52.444;13.556;2022-12-05T08:28:31;84.50;;;31.10;;
7051;SDS011;3567;52.444;13.556;2022-12-05T08:31:04;68.90;;;30.30;;
7051;SDS011;3567;52.444;13.556;2022-12-05T08:33:30;75.82;;;30.20;;
7051;SDS011;3567;52.444;13.556;2022-12-05T08:35:56;88.72;;;31.38;;
7051;SDS011;3567;52.444;13.556;2022-12-05T08:38:24;75.43;;;31.13;;
7051;SDS011;3567;52.444;13.556;2022-12-05T08:40:49;71.70;;;29.35;;
7051;SDS011;3567;52.444;13.556;2022-12-05T08:43:15;87.30;;;30.33;;
7051;SDS011;3567;52.444;13.556;2022-12-05T08:45:40;63.97;;;28.75;;
7051;SDS011;3567;52.444;13.556;2022-12-05T08:48:12;58.90;;;27.17;;
7051;SDS011;3567;52.444;13.556;2022-12-05T08:50:38;57.50;;;26.48;;
7051;SDS011;3567;52.444;13.556;2022-12-05T08:53:03;64.90;;;28.02;;
7051;SDS011;3567;52.444;13.556;2022-12-05T08:55:28;58.88;;;25.98;;
7051;SDS011;3567;52.444;13.556;2022-12-05T08:57:54;59.05;;;26.20;;
7051;SDS011;3567;52.444;13.556;2022-12-05T09:00:19;55.38;;;27.25;;
7051;SDS011;3567;52.444;13.556;2022-12-05T09:02:48;55.38;;;24.90;;
7051;SDS011;3567;52.444;13.556;2022-12-05T09:05:14;54.03;;;25.75;;
7051;SDS011;3567;52.444;13.556;2022-12-05T09:07:40;52.05;;;23.92;;
7051;SDS011;3567;52.444;13.556;2022-12-05T09:10:06;53.15;;;24.60;;
7051;SDS011;3567;52.444;13.556;2022-12-05T09:12:34;48.10;;;24.85;;
7051;SDS011;3567;52.444;13.556;2022-12-05T09:15:01;48.63;;;25.02;;
7051;SDS011;3567;52.444;13.556;2022-12-05T09:17:26;53.58;;;24.95;;
7051;SDS011;3567;52.444;13.556;2022-12-05T09:19:51;59.63;;;25.05;;
7051;SDS011;3567;52.444;13.556;2022-12-05T09:22:17;50.38;;;23.90;;
7051;SDS011;3567;52.444;13.556;2022-12-05T09:24:42;59.30;;;25.45;;
7051;SDS011;3567;52.444;13.556;2022-12-05T09:27:07;69.35;;;26.50;;
7051;SDS011;3567;52.444;13.556;2022-12-05T09:29:33;53.47;;;25.55;;
7051;SDS011;3567;52.444;13.556;2022-12-05T09:31:58;60.60;;;25.58;;
7051;SDS011;3567;52.444;13.556;2022-12-05T09:34:23;55.78;;;25.52;;
7051;SDS011;3567;52.444;13.556;2022-12-05T09:36:50;57.83;;;26.38;;
7051;SDS011;3567;52.444;13.556;2022-12-05T09:39:16;61.05;;;26.95;;
7051;SDS011;3567;52.444;13.556;2022-12-05T09:41:55;64.38;;;26.70;;
7051;SDS011;3567;52.444;13.556;2022-12-05T09:50:28;61.90;;;26.33;;
7051;SDS011;3567;52.444;13.556;2022-12-05T09:53:08;59.67;;;27.05;;
7051;SDS011;3567;52.444;13.556;2022-12-05T09:58:18;54.75;;;25.45;;
7051;SDS011;3567;52.444;13.556;2022-12-05T10:00:44;59.10;;;26.38;;
7051;SDS011;3567;52.444;13.556;2022-12-05T10:03:28;55.47;;;25.90;;
7051;SDS011;3567;52.444;13.556;2022-12-05T10:06:08;52.90;;;26.48;;
7051;SDS011;3567;52.444;13.556;2022-12-05T10:08:57;55.67;;;25.80;;
7051;SDS011;3567;52.444;13.556;2022-12-05T10:11:49;55.30;;;24.52;;
7051;SDS011;3567;52.444;13.556;2022-12-05T10:17:22;53.95;;;25.80;;
7051;SDS011;3567;52.444;13.556;2022-12-05T10:19:52;57.55;;;26.73;;
7051;SDS011;3567;52.444;13.556;2022-12-05T10:22:23;54.67;;;26.17;;
7051;SDS011;3567;52.444;13.556;2022-12-05T10:24:51;57.13;;;25.48;;
7051;SDS011;3567;52.444;13.556;2022-12-05T10:27:23;54.95;;;25.95;;
7051;SDS011;3567;52.444;13.556;2022-12-05T10:32:31;53.53;;;25.55;;
7051;SDS011;3567;52.444;13.556;2022-12-05T10:37:39;56.40;;;25.70;;
7051;SDS011;3567;52.444;13.556;2022-12-05T10:40:10;61.13;;;28.13;;
7051;SDS011;3567;52.444;13.556;2022-12-05T10:42:37;57.03;;;26.23;;
7051;SDS011;3567;52.444;13.556;2022-12-05T10:45:04;52.65;;;26.60;;
7051;SDS011;3567;52.444;13.556;2022-12-05T10:47:32;60.50;;;28.20;;
7051;SDS011;3567;52.444;13.556;2022-12-05T10:50:06;55.50;;;26.25;;
7051;SDS011;3567;52.444;13.556;2022-12-05T10:52:44;60.05;;;26.52;;
7051;SDS011;3567;52.444;13.556;2022-12-05T10:55:12;54.58;;;26.58;;
7051;SDS011;3567;52.444;13.556;2022-12-05T10:57:40;54.00;;;26.13;;
7051;SDS011;3567;52.444;13.556;2022-12-05T11:00:12;59.13;;;27.50;;
7051;SDS011;3567;52.444;13.556;2022-12-05T11:02:39;54.45;;;27.05;;
7051;SDS011;3567;52.444;13.556;2022-12-05T11:05:06;55.40;;;28.05;;
7051;SDS011;3567;52.444;13.556;2022-12-05T11:07:34;63.50;;;27.40;;
7051;SDS011;3567;52.444;13.556;2022-12-05T11:12:51;54.13;;;27.20;;
7051;SDS011;3567;52.444;13.556;2022-12-05T11:17:46;55.13;;;27.90;;
7051;SDS011;3567;52.444;13.556;2022-12-05T11:22:54;60.50;;;29.83;;
7051;SDS011;3567;52.444;13.556;2022-12-05T11:27:52;63.15;;;27.85;;
7051;SDS011;3567;52.444;13.556;2022-12-05T11:30:19;53.35;;;27.70;;
7051;SDS011;3567;52.444;13.556;2022-12-05T11:32:46;58.33;;;28.58;;
7051;SDS011;3567;52.444;13.556;2022-12-05T11:35:34;52.72;;;27.63;;
7051;SDS011;3567;52.444;13.556;2022-12-05T11:38:08;52.10;;;28.45;;
7051;SDS011;3567;52.444;13.556;2022-12-05T11:56:54;61.50;;;27.98;;
7051;SDS011;3567;52.444;13.556;2022-12-05T11:59:30;60.97;;;28.85;;
7051;SDS011;3567;52.444;13.556;2022-12-05T12:13:09;69.07;;;30.48;;
7051;SDS011;3567;52.444;13.556;2022-12-05T12:20:54;65.15;;;29.45;;
7051;SDS011;3567;52.444;13.556;2022-12-05T12:40:45;85.18;;;32.97;;
7051;SDS011;3567;52.444;13.556;2022-12-05T12:51:22;86.45;;;33.05;;
7051;SDS011;3567;52.444;13.556;2022-12-05T12:53:53;104.70;;;35.95;;
7051;SDS011;3567;52.444;13.556;2022-12-05T13:02:26;104.72;;;34.95;;
7051;SDS011;3567;52.444;13.556;2022-12-05T13:07:44;114.30;;;36.75;;
7051;SDS011;3567;52.444;13.556;2022-12-05T13:10:20;108.18;;;36.10;;
7051;SDS011;3567;52.444;13.556;2022-12-05T13:12:51;125.90;;;38.00;;
7051;SDS011;3567;52.444;13.556;2022-12-05T13:15:23;92.45;;;34.50;;
7051;SDS011;3567;52.444;13.556;2022-12-05T13:17:57;98.43;;;34.22;;
7051;SDS011;3567;52.444;13.556;2022-12-05T13:20:24;105.30;;;36.58;;
7051;SDS011;3567;52.444;13.556;2022-12-05T13:22:54;91.15;;;34.78;;
7051;SDS011;3567;52.444;13.556;2022-12-05T13:25:21;108.95;;;36.67;;
7051;SDS011;3567;52.444;13.556;2022-12-05T13:27:53;105.63;;;36.72;;
7051;SDS011;3567;52.444;13.556;2022-12-05T13:30:22;114.47;;;36.53;;
7051;SDS011;3567;52.444;13.556;2022-12-05T13:32:48;123.40;;;38.25;;
7051;SDS011;3567;52.444;13.556;2022-12-05T13:35:31;115.35;;;37.50;;
7051;SDS011;3567;52.444;13.556;2022-12-05T13:38:32;124.00;;;38.80;;
7051;SDS011;3567;52.444;13.556;2022-12-05T13:41:19;127.38;;;39.67;;
7051;SDS011;3567;52.444;13.556;2022-12-05T13:44:03;122.07;;;36.50;;
7051;SDS011;3567;52.444;13.556;2022-12-05T13:46:36;124.72;;;40.35;;
7051;SDS011;3567;52.444;13.556;2022-12-05T13:49:15;138.05;;;40.83;;
7051;SDS011;3567;52.444;13.556;2022-12-05T13:51:49;130.43;;;38.50;;
7051;SDS011;3567;52.444;13.556;2022-12-05T13:54:16;123.28;;;39.17;;
7051;SDS011;3567;52.444;13.556;2022-12-05T14:07:44;134.20;;;38.03;;
7051;SDS011;3567;52.444;13.556;2022-12-05T14:10:15;127.20;;;38.08;;
7051;SDS011;3567;52.444;13.556;2022-12-05T14:13:02;131.75;;;37.70;;
7051;SDS011;3567;52.444;13.556;2022-12-05T14:15:44;146.15;;;37.72;;
7051;SDS011;3567;52.444;13.556;2022-12-05T14:28:51;164.82;;;42.60;;
7051;SDS011;3567;52.444;13.556;2022-12-05T14:39:33;168.70;;;37.92;;
7051;SDS011;3567;52.444;13.556;2022-12-05T14:41:59;171.40;;;39.65;;
7051;SDS011;3567;52.444;13.556;2022-12-05T14:44:28;180.20;;;39.78;;
7051;SDS011;3567;52.444;13.556;2022-12-05T14:46:59;168.90;;;39.72;;
7051;SDS011;3567;52.444;13.556;2022-12-05T14:49:32;180.23;;;43.00;;
7051;SDS011;3567;52.444;13.556;2022-12-05T14:52:00;271.02;;;47.47;;
7051;SDS011;3567;52.444;13.556;2022-12-05T14:54:35;216.85;;;43.80;;
7051;SDS011;3567;52.444;13.556;2022-12-05T14:57:04;177.82;;;41.47;;
7051;SDS011;3567;52.444;13.556;2022-12-05T14:59:43;220.77;;;44.28;;
7051;SDS011;3567;52.444;13.556;2022-12-05T15:02:15;148.82;;;38.72;;
7051;SDS011;3567;52.444;13.556;2022-12-05T15:04:50;192.07;;;43.20;;
7051;SDS011;3567;52.444;13.556;2022-12-05T15:07:33;206.73;;;42.50;;
7051;SDS011;3567;52.444;13.556;2022-12-05T15:10:05;212.60;;;43.08;;
7051;SDS011;3567;52.444;13.556;2022-12-05T15:21:00;324.98;;;49.97;;
7051;SDS011;3567;52.444;13.556;2022-12-05T15:23:52;240.70;;;44.70;;
7051;SDS011;3567;52.444;13.556;2022-12-05T15:26:25;206.13;;;41.20;;
7051;SDS011;3567;52.444;13.556;2022-12-05T15:31:22;332.23;;;46.75;;
7051;SDS011;3567;52.444;13.556;2022-12-05T15:33:54;206.82;;;43.55;;
7051;SDS011;3567;52.444;13.556;2022-12-05T15:36:23;232.35;;;43.22;;
7051;SDS011;3567;52.444;13.556;2022-12-05T15:39:03;188.82;;;41.47;;
7051;SDS011;3567;52.444;13.556;2022-12-05T15:41:29;208.10;;;40.95;;
7051;SDS011;3567;52.444;13.556;2022-12-05T15:43:55;280.00;;;47.97;;
7051;SDS011;3567;52.444;13.556;2022-12-05T15:46:22;207.30;;;42.72;;
7051;SDS011;3567;52.444;13.556;2022-12-05T15:48:53;222.57;;;44.58;;
7051;SDS011;3567;52.444;13.556;2022-12-05T15:51:21;275.25;;;46.45;;
7051;SDS011;3567;52.444;13.556;2022-12-05T15:53:53;292.65;;;48.63;;
7051;SDS011;3567;52.444;13.556;2022-12-05T15:56:30;210.15;;;41.58;;
7051;SDS011;3567;52.444;13.556;2022-12-05T15:59:11;297.77;;;45.78;;
7051;SDS011;3567;52.444;13.556;2022-12-05T16:01:42;192.38;;;41.35;;
7051;SDS011;3567;52.444;13.556;2022-12-05T16:04:23;228.60;;;44.03;;
7051;SDS011;3567;52.444;13.556;2022-12-05T16:06:54;216.38;;;42.92;;
7051;SDS011;3567;52.444;13.556;2022-12-05T16:09:25;197.90;;;40.92;;
7051;SDS011;3567;52.444;13.556;2022-12-05T16:11:56;228.32;;;43.97;;
7051;SDS011;3567;52.444;13.556;2022-12-05T16:14:24;366.98;;;46.03;;
7051;SDS011;3567;52.444;13.556;2022-12-05T16:16:57;205.30;;;41.90;;
7051;SDS011;3567;52.444;13.556;2022-12-05T16:19:28;238.70;;;43.10;;
7051;SDS011;3567;52.444;13.556;2022-12-05T16:24:46;290.50;;;45.88;;
7051;SDS011;3567;52.444;13.556;2022-12-05T16:32:37;220.85;;;44.92;;
7051;SDS011;3567;52.444;13.556;2022-12-05T16:35:03;321.90;;;49.95;;
7051;SDS011;3567;52.444;13.556;2022-12-05T16:38:12;227.30;;;45.22;;
7051;SDS011;3567;52.444;13.556;2022-12-05T16:40:50;311.48;;;48.97;;
7051;SDS011;3567;52.444;13.556;2022-12-05T16:45:57;249.93;;;46.83;;
7051;SDS011;3567;52.444;13.556;2022-12-05T16:48:26;254.52;;;45.47;;
7051;SDS011;3567;52.444;13.556;2022-12-05T16:53:40;286.58;;;45.42;;
7051;SDS011;3567;52.444;13.556;2022-12-05T16:56:09;258.63;;;43.45;;
7051;SDS011;3567;52.444;13.556;2022-12-05T16:58:38;265.38;;;43.65;;
7051;SDS011;3567;52.444;13.556;2022-12-05T17:01:04;224.15;;;44.42;;
7051;SDS011;3567;52.444;13.556;2022-12-05T17:03:31;252.90;;;45.35;;
7051;SDS011;3567;52.444;13.556;2022-12-05T17:05:57;290.63;;;41.85;;
7051;SDS011;3567;52.444;13.556;2022-12-05T17:08:23;267.10;;;46.00;;
7051;SDS011;3567;52.444;13.556;2022-12-05T17:10:49;269.13;;;44.38;;
7051;SDS011;3567;52.444;13.556;2022-12-05T17:13:16;289.38;;;44.47;;
7051;SDS011;3567;52.444;13.556;2022-12-05T17:15:42;286.45;;;48.45;;
7051;SDS011;3567;52.444;13.556;2022-12-05T17:18:12;249.02;;;45.63;;
7051;SDS011;3567;52.444;13.556;2022-12-05T17:20:40;310.17;;;46.05;;
7051;SDS011;3567;52.444;13.556;2022-12-05T17:23:11;296.00;;;47.58;;
7051;SDS011;3567;52.444;13.556;2022-12-05T17:25:38;270.90;;;44.20;;
7051;SDS011;3567;52.444;13.556;2022-12-05T17:28:07;311.23;;;46.60;;
7051;SDS011;3567;52.444;13.556;2022-12-05T17:30:33;289.05;;;52.10;;
7051;SDS011;3567;52.444;13.556;2022-12-05T17:32:58;260.60;;;45.78;;
7051;SDS011;3567;52.444;13.556;2022-12-05T17:35:26;247.05;;;46.08;;
7051;SDS011;3567;52.444;13.556;2022-12-05T17:37:52;240.60;;;43.72;;
7051;SDS011;3567;52.444;13.556;2022-12-05T17:40:18;328.45;;;49.03;;
7051;SDS011;3567;52.444;13.556;2022-12-05T17:42:43;266.58;;;43.85;;
7051;SDS011;3567;52.444;13.556;2022-12-05T17:45:12;264.35;;;46.70;;
7051;SDS011;3567;52.444;13.556;2022-12-05T17:47:39;297.08;;;48.38;;
7051;SDS011;3567;52.444;13.556;2022-12-05T17:50:06;289.63;;;47.45;;
7051;SDS011;3567;52.444;13.556;2022-12-05T17:52:35;291.20;;;46.47;;
7051;SDS011;3567;52.444;13.556;2022-12-05T17:55:00;285.55;;;47.60;;
7051;SDS011;3567;52.444;13.556;2022-12-05T17:57:26;282.73;;;45.10;;
7051;SDS011;3567;52.444;13.556;2022-12-05T17:59:51;358.00;;;49.60;;
7051;SDS011;3567;52.444;13.556;2022-12-05T18:02:17;225.15;;;43.55;;